sensor_id;sensor_type;location;lat;lon;timestamp;temperature;humidity
18948;DHT22;9607;51.600;7.558;2023-01-15T00:01:39;6.80;99.90
18948;DHT22;9607;51.600;7.558;2023-01-15T00:04:07;6.70;99.90
18948;DHT22;9607;51.600;7.558;2023-01-15T00:06:36;6.70;99.90
18948;DHT22;9607;51.600;7.558;2023-01-15T00:09:05;6.60;99.90
18948;DHT22;9607;51.600;7.558;2023-01-15T00:11:32;6.50;99.90
18948;DHT22;9607;51.600;7.558;2023-01-15T00:13:59;6.50;99.90
18948;DHT22;9607;51.600;7.558;2023-01-15T00:16:26;6.40;99.90
18948;DHT22;9607;51.600;7.558;2023-01-15T00:18:54;6.30;99.90
18948;DHT22;9607;51.600;7.558;2023-01-15T00:21:23;6.20;99.90
18948;DHT22;9607;51.600;7.558;2023-01-15T00:23:50;6.10;99.90
18948;DHT22;9607;51.600;7.558;2023-01-15T00:26:37;6.10;99.90
18948;DHT22;9607;51.600;7.558;2023-01-15T00:29:22;6.00;99.90
18948;DHT22;9607;51.600;7.558;2023-01-15T00:31:52;5.90;99.90
18948;DHT22;9607;51.600;7.558;2023-01-15T00:34:20;5.90;99.90
18948;DHT22;9607;51.600;7.558;2023-01-15T00:36:47;5.80;99.90
18948;DHT22;9607;51.600;7.558;2023-01-15T00:39:14;5.70;99.90
18948;DHT22;9607;51.600;7.558;2023-01-15T00:41:42;5.70;99.90
18948;DHT22;9607;51.600;7.558;2023-01-15T00:44:08;5.60;99.90
18948;DHT22;9607;51.600;7.558;2023-01-15T00:46:35;5.60;99.90
18948;DHT22;9607;51.600;7.558;2023-01-15T00:49:02;5.50;99.90
18948;DHT22;9607;51.600;7.558;2023-01-15T00:51:30;5.50;99.90
18948;DHT22;9607;51.600;7.558;2023-01-15T00:54:00;5.50;99.90
18948;DHT22;9607;51.600;7.558;2023-01-15T00:56:27;5.50;99.90
18948;DHT22;9607;51.600;7.558;2023-01-15T00:58:55;5.50;99.90
18948;DHT22;9607;51.600;7.558;2023-01-15T01:01:22;5.50;99.90
18948;DHT22;9607;51.600;7.558;2023-01-15T01:03:49;5.50;99.90
18948;DHT22;9607;51.600;7.558;2023-01-15T01:06:18;5.50;99.90
18948;DHT22;9607;51.600;7.558;2023-01-15T01:08:45;5.50;99.90
18948;DHT22;9607;51.600;7.558;2023-01-15T01:11:14;5.50;99.90
18948;DHT22;9607;51.600;7.558;2023-01-15T01:13:41;5.50;99.90
18948;DHT22;9607;51.600;7.558;2023-01-15T01:16:23;5.50;99.90
18948;DHT22;9607;51.600;7.558;2023-01-15T01:18:51;5.50;99.90
18948;DHT22;9607;51.600;7.558;2023-01-15T01:21:18;5.50;99.90
18948;DHT22;9607;51.600;7.558;2023-01-15T01:23:45;5.50;99.90
18948;DHT22;9607;51.600;7.558;2023-01-15T01:26:12;5.50;99.90
18948;DHT22;9607;51.600;7.558;2023-01-15T01:28:39;5.50;99.90
18948;DHT22;9607;51.600;7.558;2023-01-15T01:31:06;5.60;99.90
18948;DHT22;9607;51.600;7.558;2023-01-15T01:33:35;5.60;99.90
18948;DHT22;9607;51.600;7.558;2023-01-15T01:36:02;5.60;99.90
18948;DHT22;9607;51.600;7.558;2023-01-15T01:38:29;5.60;99.90
18948;DHT22;9607;51.600;7.558;2023-01-15T01:40:57;5.60;99.90
18948;DHT22;9607;51.600;7.558;2023-01-15T01:43:26;5.60;99.90
18948;DHT22;9607;51.600;7.558;2023-01-15T01:45:53;5.60;99.90
18948;DHT22;9607;51.600;7.558;2023-01-15T01:48:22;5.60;99.90
18948;DHT22;9607;51.600;7.558;2023-01-15T01:50:53;5.60;99.90
18948;DHT22;9607;51.600;7.558;2023-01-15T01:53:24;5.60;99.90
18948;DHT22;9607;51.600;7.558;2023-01-15T01:55:53;5.70;99.90
18948;DHT22;9607;51.600;7.558;2023-01-15T01:58:22;5.60;99.90
18948;DHT22;9607;51.600;7.558;2023-01-15T02:00:50;5.70;99.90
18948;DHT22;9607;51.600;7.558;2023-01-15T02:03:21;5.70;99.90
18948;DHT22;9607;51.600;7.558;2023-01-15T02:05:52;5.70;99.90
18948;DHT22;9607;51.600;7.558;2023-01-15T02:08:20;5.70;99.90
18948;DHT22;9607;51.600;7.558;2023-01-15T02:10:51;5.70;99.90
18948;DHT22;9607;51.600;7.558;2023-01-15T02:13:23;5.70;99.90
18948;DHT22;9607;51.600;7.558;2023-01-15T02:15:57;5.70;99.90
18948;DHT22;9607;51.600;7.558;2023-01-15T02:18:29;5.80;99.90
18948;DHT22;9607;51.600;7.558;2023-01-15T02:21:03;5.80;99.90
18948;DHT22;9607;51.600;7.558;2023-01-15T02:26:49;5.90;99.90
18948;DHT22;9607;51.600;7.558;2023-01-15T02:29:28;5.90;99.90
18948;DHT22;9607;51.600;7.558;2023-01-15T02:32:00;6.00;99.90
18948;DHT22;9607;51.600;7.558;2023-01-15T02:34:31;6.00;99.90
18948;DHT22;9607;51.600;7.558;2023-01-15T02:37:03;6.00;99.90
18948;DHT22;9607;51.600;7.558;2023-01-15T02:39:32;6.10;99.90
18948;DHT22;9607;51.600;7.558;2023-01-15T02:42:03;6.10;99.90
18948;DHT22;9607;51.600;7.558;2023-01-15T02:44:31;6.10;99.90
18948;DHT22;9607;51.600;7.558;2023-01-15T02:47:03;6.10;99.90
18948;DHT22;9607;51.600;7.558;2023-01-15T02:49:31;6.20;99.90
18948;DHT22;9607;51.600;7.558;2023-01-15T02:52:01;6.20;99.90
18948;DHT22;9607;51.600;7.558;2023-01-15T02:54:32;6.10;99.90
18948;DHT22;9607;51.600;7.558;2023-01-15T02:57:03;6.20;99.90
18948;DHT22;9607;51.600;7.558;2023-01-15T02:59:36;6.20;99.90
18948;DHT22;9607;51.600;7.558;2023-01-15T03:02:06;6.20;99.90
18948;DHT22;9607;51.600;7.558;2023-01-15T03:04:37;6.20;99.90
18948;DHT22;9607;51.600;7.558;2023-01-15T03:07:09;6.20;99.90
18948;DHT22;9607;51.600;7.558;2023-01-15T03:09:37;6.20;99.90
18948;DHT22;9607;51.600;7.558;2023-01-15T03:12:12;6.20;99.90
18948;DHT22;9607;51.600;7.558;2023-01-15T03:14:52;6.20;99.90
18948;DHT22;9607;51.600;7.558;2023-01-15T03:17:23;6.20;99.90
18948;DHT22;9607;51.600;7.558;2023-01-15T03:19:57;6.20;99.90
18948;DHT22;9607;51.600;7.558;2023-01-15T03:22:27;6.20;99.90
18948;DHT22;9607;51.600;7.558;2023-01-15T03:25:00;6.20;99.90
18948;DHT22;9607;51.600;7.558;2023-01-15T03:27:30;6.20;99.90
18948;DHT22;9607;51.600;7.558;2023-01-15T03:29:59;6.20;99.90
18948;DHT22;9607;51.600;7.558;2023-01-15T03:32:28;6.20;99.90
18948;DHT22;9607;51.600;7.558;2023-01-15T03:34:56;6.20;99.90
18948;DHT22;9607;51.600;7.558;2023-01-15T03:37:26;6.20;99.90
18948;DHT22;9607;51.600;7.558;2023-01-15T03:39:54;6.10;99.90
18948;DHT22;9607;51.600;7.558;2023-01-15T03:42:32;6.20;99.90
18948;DHT22;9607;51.600;7.558;2023-01-15T03:45:08;6.20;99.90
18948;DHT22;9607;51.600;7.558;2023-01-15T03:47:44;6.10;99.90
18948;DHT22;9607;51.600;7.558;2023-01-15T03:50:19;6.10;99.90
18948;DHT22;9607;51.600;7.558;2023-01-15T03:52:55;6.10;99.90
18948;DHT22;9607;51.600;7.558;2023-01-15T03:55:29;6.20;99.90
18948;DHT22;9607;51.600;7.558;2023-01-15T03:58:06;6.10;99.90
18948;DHT22;9607;51.600;7.558;2023-01-15T04:00:41;6.10;99.90
18948;DHT22;9607;51.600;7.558;2023-01-15T04:03:12;6.10;99.90
18948;DHT22;9607;51.600;7.558;2023-01-15T04:05:41;6.10;99.90
18948;DHT22;9607;51.600;7.558;2023-01-15T04:08:10;6.10;99.90
18948;DHT22;9607;51.600;7.558;2023-01-15T04:10:53;6.10;99.90
18948;DHT22;9607;51.600;7.558;2023-01-15T04:13:22;6.10;99.90
18948;DHT22;9607;51.600;7.558;2023-01-15T04:15:49;6.10;99.90
18948;DHT22;9607;51.600;7.558;2023-01-15T04:18:16;6.10;99.90
18948;DHT22;9607;51.600;7.558;2023-01-15T04:20:43;6.10;99.90
18948;DHT22;9607;51.600;7.558;2023-01-15T04:23:10;6.10;99.90
18948;DHT22;9607;51.600;7.558;2023-01-15T04:25:37;6.10;99.90
18948;DHT22;9607;51.600;7.558;2023-01-15T04:28:05;6.10;99.90
18948;DHT22;9607;51.600;7.558;2023-01-15T04:30:34;6.10;99.90
18948;DHT22;9607;51.600;7.558;2023-01-15T04:33:02;6.10;99.90
18948;DHT22;9607;51.600;7.558;2023-01-15T04:35:29;6.10;99.90
18948;DHT22;9607;51.600;7.558;2023-01-15T04:37:55;6.10;99.90
18948;DHT22;9607;51.600;7.558;2023-01-15T04:40:22;6.10;99.90
18948;DHT22;9607;51.600;7.558;2023-01-15T04:43:07;6.10;99.90
18948;DHT22;9607;51.600;7.558;2023-01-15T04:45:54;6.10;99.90
18948;DHT22;9607;51.600;7.558;2023-01-15T04:48:21;6.10;99.90
18948;DHT22;9607;51.600;7.558;2023-01-15T04:50:51;6.10;99.90
18948;DHT22;9607;51.600;7.558;2023-01-15T04:53:18;6.10;99.90
18948;DHT22;9607;51.600;7.558;2023-01-15T04:55:45;6.10;99.90
18948;DHT22;9607;51.600;7.558;2023-01-15T04:58:11;6.10;99.90
18948;DHT22;9607;51.600;7.558;2023-01-15T05:00:39;6.10;99.90
18948;DHT22;9607;51.600;7.558;2023-01-15T05:03:07;6.10;99.90
18948;DHT22;9607;51.600;7.558;2023-01-15T05:05:34;6.10;99.90
18948;DHT22;9607;51.600;7.558;2023-01-15T05:08:01;6.10;99.90
18948;DHT22;9607;51.600;7.558;2023-01-15T05:10:28;6.10;99.90
18948;DHT22;9607;51.600;7.558;2023-01-15T05:12:55;6.10;99.90
18948;DHT22;9607;51.600;7.558;2023-01-15T05:15:21;6.10;99.90
18948;DHT22;9607;51.600;7.558;2023-01-15T05:17:48;6.00;99.90
18948;DHT22;9607;51.600;7.558;2023-01-15T05:20:17;6.10;99.90
18948;DHT22;9607;51.600;7.558;2023-01-15T05:22:43;6.10;99.90
18948;DHT22;9607;51.600;7.558;2023-01-15T05:25:10;6.10;99.90
18948;DHT22;9607;51.600;7.558;2023-01-15T05:27:37;6.10;99.90
18948;DHT22;9607;51.600;7.558;2023-01-15T05:30:05;6.10;99.90
18948;DHT22;9607;51.600;7.558;2023-01-15T05:32:32;6.10;99.90
18948;DHT22;9607;51.600;7.558;2023-01-15T05:34:59;6.10;99.90
18948;DHT22;9607;51.600;7.558;2023-01-15T05:37:29;6.10;99.90
18948;DHT22;9607;51.600;7.558;2023-01-15T05:39:56;6.10;99.90
18948;DHT22;9607;51.600;7.558;2023-01-15T05:42:23;6.10;99.90
18948;DHT22;9607;51.600;7.558;2023-01-15T05:44:50;6.10;99.90
18948;DHT22;9607;51.600;7.558;2023-01-15T05:47:17;6.10;99.90
18948;DHT22;9607;51.600;7.558;2023-01-15T05:49:44;6.00;99.90
18948;DHT22;9607;51.600;7.558;2023-01-15T05:52:13;6.10;99.90
18948;DHT22;9607;51.600;7.558;2023-01-15T05:54:41;6.10;99.90
18948;DHT22;9607;51.600;7.558;2023-01-15T05:57:10;6.10;99.90
18948;DHT22;9607;51.600;7.558;2023-01-15T05:59:38;6.10;99.90
18948;DHT22;9607;51.600;7.558;2023-01-15T06:02:05;6.10;99.90
18948;DHT22;9607;51.600;7.558;2023-01-15T06:04:32;6.10;99.90
18948;DHT22;9607;51.600;7.558;2023-01-15T06:06:59;6.20;99.90
18948;DHT22;9607;51.600;7.558;2023-01-15T06:09:26;6.20;99.90
18948;DHT22;9607;51.600;7.558;2023-01-15T06:11:55;6.20;99.90
18948;DHT22;9607;51.600;7.558;2023-01-15T06:14:23;6.10;99.90
18948;DHT22;9607;51.600;7.558;2023-01-15T06:16:50;6.20;99.90
18948;DHT22;9607;51.600;7.558;2023-01-15T06:19:24;6.20;99.90
18948;DHT22;9607;51.600;7.558;2023-01-15T06:21:51;6.10;99.90
18948;DHT22;9607;51.600;7.558;2023-01-15T06:24:18;6.10;99.90
18948;DHT22;9607;51.600;7.558;2023-01-15T06:26:45;6.10;99.90
18948;DHT22;9607;51.600;7.558;2023-01-15T06:29:13;6.20;99.90
18948;DHT22;9607;51.600;7.558;2023-01-15T06:31:44;6.10;99.90
18948;DHT22;9607;51.600;7.558;2023-01-15T06:34:17;6.20;99.90
18948;DHT22;9607;51.600;7.558;2023-01-15T06:36:46;6.20;99.90
18948;DHT22;9607;51.600;7.558;2023-01-15T06:39:13;6.20;99.90
18948;DHT22;9607;51.600;7.558;2023-01-15T06:41:40;6.20;99.90
18948;DHT22;9607;51.600;7.558;2023-01-15T06:44:26;6.20;99.90
18948;DHT22;9607;51.600;7.558;2023-01-15T06:47:12;6.20;99.90
18948;DHT22;9607;51.600;7.558;2023-01-15T06:49:53;6.20;99.90
18948;DHT22;9607;51.600;7.558;2023-01-15T06:52:20;6.20;99.90
18948;DHT22;9607;51.600;7.558;2023-01-15T06:54:51;6.20;99.90
18948;DHT22;9607;51.600;7.558;2023-01-15T06:57:18;6.20;99.90
18948;DHT22;9607;51.600;7.558;2023-01-15T06:59:47;6.20;99.90
18948;DHT22;9607;51.600;7.558;2023-01-15T07:02:15;6.20;99.90
18948;DHT22;9607;51.600;7.558;2023-01-15T07:04:42;6.30;99.90
18948;DHT22;9607;51.600;7.558;2023-01-15T07:07:09;6.30;99.90
18948;DHT22;9607;51.600;7.558;2023-01-15T07:09:36;6.30;99.90
18948;DHT22;9607;51.600;7.558;2023-01-15T07:12:03;6.30;99.90
18948;DHT22;9607;51.600;7.558;2023-01-15T07:14:30;6.30;99.90
18948;DHT22;9607;51.600;7.558;2023-01-15T07:17:01;6.30;99.90
18948;DHT22;9607;51.600;7.558;2023-01-15T07:19:28;6.30;99.90
18948;DHT22;9607;51.600;7.558;2023-01-15T07:21:55;6.30;99.90
18948;DHT22;9607;51.600;7.558;2023-01-15T07:24:22;6.30;99.90
18948;DHT22;9607;51.600;7.558;2023-01-15T07:26:49;6.30;99.90
18948;DHT22;9607;51.600;7.558;2023-01-15T07:29:16;6.40;99.90
18948;DHT22;9607;51.600;7.558;2023-01-15T07:31:42;6.40;99.90
18948;DHT22;9607;51.600;7.558;2023-01-15T07:34:11;6.40;99.90
18948;DHT22;9607;51.600;7.558;2023-01-15T07:36:38;6.40;99.90
18948;DHT22;9607;51.600;7.558;2023-01-15T07:39:05;6.40;99.90
18948;DHT22;9607;51.600;7.558;2023-01-15T07:41:32;6.50;99.90
18948;DHT22;9607;51.600;7.558;2023-01-15T07:44:16;6.40;99.90
18948;DHT22;9607;51.600;7.558;2023-01-15T07:47:01;6.50;99.90
18948;DHT22;9607;51.600;7.558;2023-01-15T07:49:48;6.50;99.90
18948;DHT22;9607;51.600;7.558;2023-01-15T07:52:16;6.50;99.90
18948;DHT22;9607;51.600;7.558;2023-01-15T07:54:47;6.50;99.90
18948;DHT22;9607;51.600;7.558;2023-01-15T07:57:17;6.50;99.90
18948;DHT22;9607;51.600;7.558;2023-01-15T07:59:44;6.50;99.90
18948;DHT22;9607;51.600;7.558;2023-01-15T08:02:11;6.50;99.90
18948;DHT22;9607;51.600;7.558;2023-01-15T08:04:40;6.50;99.90
18948;DHT22;9607;51.600;7.558;2023-01-15T08:07:08;6.50;99.90
18948;DHT22;9607;51.600;7.558;2023-01-15T08:09:35;6.50;99.90
18948;DHT22;9607;51.600;7.558;2023-01-15T08:12:04;6.50;99.90
18948;DHT22;9607;51.600;7.558;2023-01-15T08:14:48;6.60;99.90
18948;DHT22;9607;51.600;7.558;2023-01-15T08:17:33;6.50;99.90
18948;DHT22;9607;51.600;7.558;2023-01-15T08:20:00;6.50;99.90
18948;DHT22;9607;51.600;7.558;2023-01-15T08:22:29;6.50;99.90
18948;DHT22;9607;51.600;7.558;2023-01-15T08:24:55;6.50;99.90
18948;DHT22;9607;51.600;7.558;2023-01-15T08:27:22;6.50;99.90
18948;DHT22;9607;51.600;7.558;2023-01-15T08:29:52;6.60;99.90
18948;DHT22;9607;51.600;7.558;2023-01-15T08:32:19;6.60;99.90
18948;DHT22;9607;51.600;7.558;2023-01-15T08:34:46;6.50;99.90
18948;DHT22;9607;51.600;7.558;2023-01-15T08:37:13;6.60;99.90
18948;DHT22;9607;51.600;7.558;2023-01-15T08:39:41;6.60;99.90
18948;DHT22;9607;51.600;7.558;2023-01-15T08:42:07;6.50;99.90
18948;DHT22;9607;51.600;7.558;2023-01-15T08:44:34;6.60;99.90
18948;DHT22;9607;51.600;7.558;2023-01-15T08:47:01;6.50;99.90
18948;DHT22;9607;51.600;7.558;2023-01-15T08:49:29;6.60;99.90
18948;DHT22;9607;51.600;7.558;2023-01-15T08:51:56;6.60;99.90
18948;DHT22;9607;51.600;7.558;2023-01-15T08:54:22;6.60;99.90
18948;DHT22;9607;51.600;7.558;2023-01-15T08:56:52;6.60;99.90
18948;DHT22;9607;51.600;7.558;2023-01-15T08:59:18;6.60;99.90
18948;DHT22;9607;51.600;7.558;2023-01-15T09:01:45;6.60;99.90
18948;DHT22;9607;51.600;7.558;2023-01-15T09:04:13;6.60;99.90
18948;DHT22;9607;51.600;7.558;2023-01-15T09:06:40;6.60;99.90
18948;DHT22;9607;51.600;7.558;2023-01-15T09:09:07;6.60;99.90
18948;DHT22;9607;51.600;7.558;2023-01-15T09:11:35;6.60;99.90
18948;DHT22;9607;51.600;7.558;2023-01-15T09:14:06;6.70;99.90
18948;DHT22;9607;51.600;7.558;2023-01-15T09:16:33;6.60;99.90
18948;DHT22;9607;51.600;7.558;2023-01-15T09:18:59;6.60;99.90
18948;DHT22;9607;51.600;7.558;2023-01-15T09:21:26;6.60;99.90
18948;DHT22;9607;51.600;7.558;2023-01-15T09:23:54;6.50;99.90
18948;DHT22;9607;51.600;7.558;2023-01-15T09:26:26;6.50;99.90
18948;DHT22;9607;51.600;7.558;2023-01-15T09:28:55;6.40;99.90
18948;DHT22;9607;51.600;7.558;2023-01-15T09:31:24;6.40;99.90
18948;DHT22;9607;51.600;7.558;2023-01-15T09:33:51;6.40;99.90
18948;DHT22;9607;51.600;7.558;2023-01-15T09:36:21;6.30;99.90
18948;DHT22;9607;51.600;7.558;2023-01-15T09:38:48;6.30;99.90
18948;DHT22;9607;51.600;7.558;2023-01-15T09:41:16;6.40;99.90
18948;DHT22;9607;51.600;7.558;2023-01-15T09:44:24;6.30;99.90
18948;DHT22;9607;51.600;7.558;2023-01-15T09:47:02;6.30;99.90
18948;DHT22;9607;51.600;7.558;2023-01-15T09:49:47;6.30;99.90
18948;DHT22;9607;51.600;7.558;2023-01-15T09:52:24;6.40;99.90
18948;DHT22;9607;51.600;7.558;2023-01-15T09:54:58;6.40;99.90
18948;DHT22;9607;51.600;7.558;2023-01-15T09:57:28;6.40;99.90
18948;DHT22;9607;51.600;7.558;2023-01-15T09:59:56;6.40;99.90
18948;DHT22;9607;51.600;7.558;2023-01-15T10:02:34;6.40;99.90
18948;DHT22;9607;51.600;7.558;2023-01-15T10:05:10;6.50;99.90
18948;DHT22;9607;51.600;7.558;2023-01-15T10:07:48;6.50;99.90
18948;DHT22;9607;51.600;7.558;2023-01-15T10:10:22;6.50;99.90
18948;DHT22;9607;51.600;7.558;2023-01-15T10:12:53;6.60;99.90
18948;DHT22;9607;51.600;7.558;2023-01-15T10:15:26;6.70;99.90
18948;DHT22;9607;51.600;7.558;2023-01-15T10:17:58;6.80;99.90
18948;DHT22;9607;51.600;7.558;2023-01-15T10:20:49;7.00;99.90
18948;DHT22;9607;51.600;7.558;2023-01-15T10:23:41;7.00;99.90
18948;DHT22;9607;51.600;7.558;2023-01-15T10:26:16;7.00;99.90
18948;DHT22;9607;51.600;7.558;2023-01-15T10:28:57;7.10;99.90
18948;DHT22;9607;51.600;7.558;2023-01-15T10:31:38;7.10;99.90
18948;DHT22;9607;51.600;7.558;2023-01-15T10:34:38;7.10;99.90
18948;DHT22;9607;51.600;7.558;2023-01-15T10:37:13;7.10;99.90
18948;DHT22;9607;51.600;7.558;2023-01-15T10:39:55;7.10;99.90
18948;DHT22;9607;51.600;7.558;2023-01-15T10:42:34;7.10;99.90
18948;DHT22;9607;51.600;7.558;2023-01-15T10:45:10;7.10;99.90
18948;DHT22;9607;51.600;7.558;2023-01-15T10:47:38;7.10;99.90
18948;DHT22;9607;51.600;7.558;2023-01-15T10:50:17;7.10;99.90
18948;DHT22;9607;51.600;7.558;2023-01-15T10:52:49;7.10;99.90
18948;DHT22;9607;51.600;7.558;2023-01-15T10:55:22;7.20;99.90
18948;DHT22;9607;51.600;7.558;2023-01-15T10:57:56;7.20;99.90
18948;DHT22;9607;51.600;7.558;2023-01-15T11:00:28;7.30;99.90
18948;DHT22;9607;51.600;7.558;2023-01-15T11:02:59;7.30;99.90
18948;DHT22;9607;51.600;7.558;2023-01-15T11:05:31;7.40;99.90
18948;DHT22;9607;51.600;7.558;2023-01-15T11:08:00;7.40;99.90
18948;DHT22;9607;51.600;7.558;2023-01-15T11:10:28;7.40;99.90
18948;DHT22;9607;51.600;7.558;2023-01-15T11:12:58;7.40;99.90
18948;DHT22;9607;51.600;7.558;2023-01-15T11:15:45;7.40;99.90
18948;DHT22;9607;51.600;7.558;2023-01-15T11:18:32;7.50;99.90
18948;DHT22;9607;51.600;7.558;2023-01-15T11:21:21;7.50;99.90
18948;DHT22;9607;51.600;7.558;2023-01-15T11:23:49;7.50;99.90
18948;DHT22;9607;51.600;7.558;2023-01-15T11:26:19;7.50;99.90
18948;DHT22;9607;51.600;7.558;2023-01-15T11:28:46;7.60;99.90
18948;DHT22;9607;51.600;7.558;2023-01-15T11:31:21;7.60;99.90
18948;DHT22;9607;51.600;7.558;2023-01-15T11:33:57;7.60;99.90
18948;DHT22;9607;51.600;7.558;2023-01-15T11:36:27;7.70;99.90
18948;DHT22;9607;51.600;7.558;2023-01-15T11:38:55;7.80;99.90
18948;DHT22;9607;51.600;7.558;2023-01-15T11:41:27;7.80;99.90
18948;DHT22;9607;51.600;7.558;2023-01-15T11:44:22;7.90;99.90
18948;DHT22;9607;51.600;7.558;2023-01-15T11:47:10;7.80;99.90
18948;DHT22;9607;51.600;7.558;2023-01-15T11:49:55;7.80;99.90
18948;DHT22;9607;51.600;7.558;2023-01-15T11:52:45;7.80;99.90
18948;DHT22;9607;51.600;7.558;2023-01-15T11:55:16;7.80;99.90
18948;DHT22;9607;51.600;7.558;2023-01-15T11:57:44;7.80;99.90
18948;DHT22;9607;51.600;7.558;2023-01-15T12:00:20;7.70;99.90
18948;DHT22;9607;51.600;7.558;2023-01-15T12:02:49;7.80;99.90
18948;DHT22;9607;51.600;7.558;2023-01-15T12:05:18;7.80;99.90
18948;DHT22;9607;51.600;7.558;2023-01-15T12:07:49;7.90;99.90
18948;DHT22;9607;51.600;7.558;2023-01-15T12:10:20;7.90;99.90
18948;DHT22;9607;51.600;7.558;2023-01-15T12:13:17;7.90;99.90
18948;DHT22;9607;51.600;7.558;2023-01-15T12:15:50;7.90;99.90
18948;DHT22;9607;51.600;7.558;2023-01-15T12:18:50;7.80;99.90
18948;DHT22;9607;51.600;7.558;2023-01-15T12:21:38;7.80;99.90
18948;DHT22;9607;51.600;7.558;2023-01-15T12:27:38;7.80;99.90
18948;DHT22;9607;51.600;7.558;2023-01-15T12:30:18;7.80;99.90
18948;DHT22;9607;51.600;7.558;2023-01-15T12:32:51;7.80;99.90
18948;DHT22;9607;51.600;7.558;2023-01-15T12:35:33;7.80;99.90
18948;DHT22;9607;51.600;7.558;2023-01-15T12:38:08;7.80;99.90
18948;DHT22;9607;51.600;7.558;2023-01-15T12:40:44;7.80;99.90
18948;DHT22;9607;51.600;7.558;2023-01-15T12:43:17;7.90;99.90
18948;DHT22;9607;51.600;7.558;2023-01-15T12:46:21;8.00;99.90
18948;DHT22;9607;51.600;7.558;2023-01-15T12:49:00;8.00;99.90
18948;DHT22;9607;51.600;7.558;2023-01-15T12:51:34;7.90;99.90
18948;DHT22;9607;51.600;7.558;2023-01-15T12:54:09;7.90;99.90
18948;DHT22;9607;51.600;7.558;2023-01-15T12:56:48;7.80;99.90
18948;DHT22;9607;51.600;7.558;2023-01-15T12:59:21;7.80;99.90
18948;DHT22;9607;51.600;7.558;2023-01-15T13:01:57;7.80;99.90
18948;DHT22;9607;51.600;7.558;2023-01-15T13:04:41;7.90;99.90
18948;DHT22;9607;51.600;7.558;2023-01-15T13:07:14;7.90;99.90
18948;DHT22;9607;51.600;7.558;2023-01-15T13:09:46;7.90;99.90
18948;DHT22;9607;51.600;7.558;2023-01-15T13:12:16;7.80;99.90
18948;DHT22;9607;51.600;7.558;2023-01-15T13:14:43;7.90;99.90
18948;DHT22;9607;51.600;7.558;2023-01-15T13:17:19;7.90;99.90
18948;DHT22;9607;51.600;7.558;2023-01-15T13:20:04;7.90;99.90
18948;DHT22;9607;51.600;7.558;2023-01-15T13:22:46;7.90;99.90
18948;DHT22;9607;51.600;7.558;2023-01-15T13:25:39;7.90;99.90
18948;DHT22;9607;51.600;7.558;2023-01-15T13:28:35;7.80;99.90
18948;DHT22;9607;51.600;7.558;2023-01-15T13:31:12;7.90;99.90
18948;DHT22;9607;51.600;7.558;2023-01-15T13:33:47;7.90;99.90
18948;DHT22;9607;51.600;7.558;2023-01-15T13:36:21;7.90;99.90
18948;DHT22;9607;51.600;7.558;2023-01-15T13:38:54;7.70;99.90
18948;DHT22;9607;51.600;7.558;2023-01-15T13:41:25;7.80;99.90
18948;DHT22;9607;51.600;7.558;2023-01-15T13:44:16;7.70;99.90
18948;DHT22;9607;51.600;7.558;2023-01-15T13:46:45;7.70;99.90
18948;DHT22;9607;51.600;7.558;2023-01-15T13:49:18;7.60;99.90
18948;DHT22;9607;51.600;7.558;2023-01-15T13:51:48;7.60;99.90
18948;DHT22;9607;51.600;7.558;2023-01-15T13:54:17;7.60;99.90
18948;DHT22;9607;51.600;7.558;2023-01-15T13:56:45;7.60;99.90
18948;DHT22;9607;51.600;7.558;2023-01-15T13:59:40;7.70;99.90
18948;DHT22;9607;51.600;7.558;2023-01-15T14:02:23;7.60;99.90
18948;DHT22;9607;51.600;7.558;2023-01-15T14:04:51;7.70;99.90
18948;DHT22;9607;51.600;7.558;2023-01-15T14:07:19;7.70;99.90
18948;DHT22;9607;51.600;7.558;2023-01-15T14:09:48;7.70;99.90
18948;DHT22;9607;51.600;7.558;2023-01-15T14:12:26;7.80;99.90
18948;DHT22;9607;51.600;7.558;2023-01-15T14:15:14;7.80;99.90
18948;DHT22;9607;51.600;7.558;2023-01-15T14:18:03;7.80;99.90
18948;DHT22;9607;51.600;7.558;2023-01-15T14:20:59;7.80;99.90
18948;DHT22;9607;51.600;7.558;2023-01-15T14:23:47;7.80;99.90
18948;DHT22;9607;51.600;7.558;2023-01-15T14:26:24;7.80;99.90
18948;DHT22;9607;51.600;7.558;2023-01-15T14:29:03;7.70;99.90
18948;DHT22;9607;51.600;7.558;2023-01-15T14:31:41;7.70;99.90
18948;DHT22;9607;51.600;7.558;2023-01-15T14:34:15;7.70;99.90
18948;DHT22;9607;51.600;7.558;2023-01-15T14:36:50;7.80;99.90
18948;DHT22;9607;51.600;7.558;2023-01-15T14:39:36;7.80;99.90
18948;DHT22;9607;51.600;7.558;2023-01-15T14:42:08;7.80;99.90
18948;DHT22;9607;51.600;7.558;2023-01-15T14:44:59;7.90;99.90
18948;DHT22;9607;51.600;7.558;2023-01-15T14:47:33;8.00;99.90
18948;DHT22;9607;51.600;7.558;2023-01-15T14:50:26;8.00;99.90
18948;DHT22;9607;51.600;7.558;2023-01-15T14:53:03;8.00;99.90
18948;DHT22;9607;51.600;7.558;2023-01-15T14:55:31;8.00;99.90
18948;DHT22;9607;51.600;7.558;2023-01-15T14:58:01;7.90;99.90
18948;DHT22;9607;51.600;7.558;2023-01-15T15:00:34;7.90;99.90
18948;DHT22;9607;51.600;7.558;2023-01-15T15:03:13;7.90;99.90
18948;DHT22;9607;51.600;7.558;2023-01-15T15:05:42;7.90;99.90
18948;DHT22;9607;51.600;7.558;2023-01-15T15:08:15;7.80;99.90
18948;DHT22;9607;51.600;7.558;2023-01-15T15:10:47;7.80;99.90
18948;DHT22;9607;51.600;7.558;2023-01-15T15:13:26;7.80;99.90
18948;DHT22;9607;51.600;7.558;2023-01-15T15:16:00;7.70;99.90
18948;DHT22;9607;51.600;7.558;2023-01-15T15:18:33;7.70;99.90
18948;DHT22;9607;51.600;7.558;2023-01-15T15:21:06;7.60;99.90
18948;DHT22;9607;51.600;7.558;2023-01-15T15:23:38;7.60;99.90
18948;DHT22;9607;51.600;7.558;2023-01-15T15:26:18;7.60;99.90
18948;DHT22;9607;51.600;7.558;2023-01-15T15:28:55;7.50;99.90
18948;DHT22;9607;51.600;7.558;2023-01-15T15:31:28;7.50;99.90
18948;DHT22;9607;51.600;7.558;2023-01-15T15:33:58;7.50;99.90
18948;DHT22;9607;51.600;7.558;2023-01-15T15:36:30;7.50;99.90
18948;DHT22;9607;51.600;7.558;2023-01-15T15:39:00;7.40;99.90
18948;DHT22;9607;51.600;7.558;2023-01-15T15:41:30;7.40;99.90
18948;DHT22;9607;51.600;7.558;2023-01-15T15:44:19;7.40;99.90
18948;DHT22;9607;51.600;7.558;2023-01-15T15:47:17;7.30;99.90
18948;DHT22;9607;51.600;7.558;2023-01-15T15:50:04;7.40;99.90
18948;DHT22;9607;51.600;7.558;2023-01-15T15:52:32;7.40;99.90
18948;DHT22;9607;51.600;7.558;2023-01-15T15:55:01;7.40;99.90
18948;DHT22;9607;51.600;7.558;2023-01-15T15:57:32;7.40;99.90
18948;DHT22;9607;51.600;7.558;2023-01-15T16:00:00;7.40;99.90
18948;DHT22;9607;51.600;7.558;2023-01-15T16:02:30;7.20;99.90
18948;DHT22;9607;51.600;7.558;2023-01-15T16:05:18;7.20;99.90
18948;DHT22;9607;51.600;7.558;2023-01-15T16:07:45;7.10;99.90
18948;DHT22;9607;51.600;7.558;2023-01-15T16:10:14;7.10;99.90
18948;DHT22;9607;51.600;7.558;2023-01-15T16:12:44;7.10;99.90
18948;DHT22;9607;51.600;7.558;2023-01-15T16:15:15;7.10;99.90
18948;DHT22;9607;51.600;7.558;2023-01-15T16:17:43;7.10;99.90
18948;DHT22;9607;51.600;7.558;2023-01-15T16:20:15;7.10;99.90
18948;DHT22;9607;51.600;7.558;2023-01-15T16:22:46;7.00;99.90
18948;DHT22;9607;51.600;7.558;2023-01-15T16:25:21;7.10;99.90
18948;DHT22;9607;51.600;7.558;2023-01-15T16:27:48;7.00;99.90
18948;DHT22;9607;51.600;7.558;2023-01-15T16:30:15;7.00;99.90
18948;DHT22;9607;51.600;7.558;2023-01-15T16:32:43;7.10;99.90
18948;DHT22;9607;51.600;7.558;2023-01-15T16:35:16;7.10;99.90
18948;DHT22;9607;51.600;7.558;2023-01-15T16:37:46;7.10;99.90
18948;DHT22;9607;51.600;7.558;2023-01-15T16:40:19;7.20;99.90
18948;DHT22;9607;51.600;7.558;2023-01-15T16:42:59;7.20;99.90